Terminal Aerodrome Forecast
Issued by NWS Grand Forks, ND

Home | Current Version | Previous Version | Text Only | Print | Product List | Glossary Off
Versions: 1 2 3 4 5 6 7 8 9 10 11 12 13 14 15 16 17 18 19 20 21

000
FTUS43 KFGF 311416 AAA
TAFGFK
TAF AMD
KGFK 311416Z 3114/0112 18010KT P6SM SCT150
      TEMPO 3114/3117 BKN017
     FM311700 24010KT P6SM BKN120
     FM312000 28014KT P6SM SCT250
     FM010200 27005KT P6SM SKC=

USA.gov is the U.S. government's official web portal to all federal, state and local government web resources and services.